Time;durP1;ratioP1;P1;durP2;ratioP2;P2;SDS_P1;SDS_P2;PMS_P1;PMS_P2;Temp;Humidity;BMP_temperature;BMP_pressure;BME280_temperature;BME280_humidity;BME280_pressure;Samples;Min_cycle;Max_cycle;Signal;HPM_P1;HPM_P2
2022/05/26 00:01:34;;;;;;;25.05;18.17;;;14.50;99.90;;;;;;5070562;28;20406;-87
2022/05/26 00:04:01;;;;;;;21.17;16.03;;;14.50;99.90;;;;;;5085918;28;20375;-87
2022/05/26 00:06:29;;;;;;;25.52;17.00;;;14.40;99.90;;;;;;5069772;28;20398;-87
2022/05/26 00:08:57;;;;;;;21.85;15.55;;;14.40;99.90;;;;;;5069892;28;20867;-86
2022/05/26 00:11:28;;;;;;;25.98;18.00;;;14.60;99.90;;;;;;5069864;28;20374;-86
2022/05/26 00:13:56;;;;;;;22.15;16.40;;;14.70;99.90;;;;;;5069688;28;20416;-86
2022/05/26 00:16:23;;;;;;;19.27;14.57;;;14.80;99.90;;;;;;5069386;28;20419;-86
2022/05/26 00:18:50;;;;;;;19.85;14.15;;;14.90;99.90;;;;;;5070487;28;20382;-86
2022/05/26 00:21:18;;;;;;;19.23;14.68;;;15.10;99.90;;;;;;5069260;28;20482;-86
2022/05/26 00:23:45;;;;;;;21.63;14.18;;;15.10;99.90;;;;;;5070368;28;20402;-85
2022/05/26 00:26:12;;;;;;;18.70;13.65;;;15.30;99.90;;;;;;5070358;28;20393;-84
2022/05/26 00:28:39;;;;;;;19.55;13.50;;;15.30;99.90;;;;;;5069867;28;20464;-84
2022/05/26 00:31:06;;;;;;;19.17;13.85;;;15.40;99.90;;;;;;5069426;28;20435;-84
2022/05/26 00:33:33;;;;;;;20.60;14.18;;;15.50;99.90;;;;;;5067832;28;20858;-85
2022/05/26 00:36:09;;;;;;;18.77;13.30;;;15.70;99.90;;;;;;5069113;28;20397;-84
2022/05/26 00:38:36;;;;;;;14.15;10.55;;;15.80;99.90;;;;;;5069414;28;20375;-84
2022/05/26 00:41:09;;;;;;;13.35;10.05;;;16.00;99.90;;;;;;5067841;28;20436;-84
2022/05/26 00:43:41;;;;;;;14.65;9.80;;;16.20;99.90;;;;;;5067576;28;20439;-84
2022/05/26 00:46:28;;;;;;;10.10;7.28;;;16.30;99.90;;;;;;5067871;28;20840;-85
2022/05/26 00:48:59;;;;;;;9.35;6.90;;;16.40;99.90;;;;;;5068751;28;20738;-84
2022/05/26 00:51:34;;;;;;;8.97;6.87;;;16.50;99.90;;;;;;5069202;28;20366;-85
2022/05/26 00:54:09;;;;;;;10.20;6.83;;;16.60;99.90;;;;;;5069154;28;20377;-84
2022/05/26 00:56:50;;;;;;;9.73;7.30;;;16.70;99.90;;;;;;5068781;28;20749;-85
2022/05/26 00:59:31;;;;;;;8.50;7.20;;;16.70;99.90;;;;;;5068881;28;20373;-84
2022/05/26 01:02:01;;;;;;;9.57;7.13;;;16.80;99.90;;;;;;5069774;28;20398;-84
2022/05/26 01:04:42;;;;;;;8.88;7.20;;;16.80;99.90;;;;;;5068396;28;20370;-84
2022/05/26 01:07:23;;;;;;;8.05;5.57;;;16.80;99.90;;;;;;5068789;28;20382;-85
2022/05/26 01:09:50;;;;;;;9.30;6.40;;;17.00;99.90;;;;;;5068525;28;20854;-84
2022/05/26 01:12:17;;;;;;;9.17;6.23;;;17.10;99.90;;;;;;5068670;28;20370;-85
2022/05/26 01:14:52;;;;;;;8.15;5.82;;;17.30;99.90;;;;;;5069025;28;20426;-85
2022/05/26 01:17:56;;;;;;;10.27;7.07;;;17.50;99.90;;;;;;5068531;28;20406;-85
2022/05/26 01:21:07;;;;;;;10.57;6.77;;;17.50;99.90;;;;;;5068368;28;20373;-84
2022/05/26 01:23:55;;;;;;;7.97;6.00;;;17.50;99.90;;;;;;5045716;28;20391;-84
2022/05/26 01:26:46;;;;;;;8.47;6.60;;;17.50;99.90;;;;;;5045578;28;20921;-84
2022/05/26 01:29:35;;;;;;;6.35;5.20;;;17.70;99.90;;;;;;5045607;28;20379;-84
2022/05/26 01:32:13;;;;;;;6.55;4.40;;;17.90;99.90;;;;;;5045776;28;20375;-84
2022/05/26 01:35:04;;;;;;;6.00;4.60;;;18.10;99.90;;;;;;5045450;28;20905;-84
2022/05/26 01:38:03;;;;;;;5.78;3.92;;;17.90;99.90;;;;;;5045857;28;20378;-86
2022/05/26 01:40:41;;;;;;;6.22;4.88;;;18.00;99.90;;;;;;5045379;28;20376;-83
2022/05/26 01:43:36;;;;;;;9.63;6.50;;;18.10;99.90;;;;;;5045938;28;20446;-85
2022/05/26 01:46:11;;;;;;;3.85;3.10;;;18.20;99.90;;;;;;5037550;28;20379;-84
2022/05/26 01:49:05;;;;;;;2.88;2.42;;;18.40;99.90;;;;;;5045713;28;20380;-84
2022/05/26 01:52:00;;;;;;;4.82;2.30;;;18.60;99.90;;;;;;5045790;28;20372;-84
2022/05/26 01:54:39;;;;;;;4.10;2.45;;;18.80;99.90;;;;;;5058462;28;20390;-84
2022/05/26 01:57:22;;;;;;;2.92;1.50;;;18.90;99.90;;;;;;5068885;28;20359;-84
2022/05/26 02:00:17;;;;;;;2.08;1.50;;;18.90;99.90;;;;;;5072901;28;20377;-84
2022/05/26 02:03:01;;;;;;;3.05;1.42;;;19.00;99.90;;;;;;5073965;28;20402;-85
2022/05/26 02:05:33;;;;;;;4.65;1.30;;;19.00;99.90;;;;;;5074736;28;20374;-84
2022/05/26 02:08:09;;;;;;;1.50;1.20;;;19.10;99.90;;;;;;5073211;28;20377;-84
2022/05/26 02:10:51;;;;;;;2.65;1.33;;;19.30;99.90;;;;;;5090332;28;20882;-85
2022/05/26 02:13:30;;;;;;;4.43;1.50;;;19.50;99.90;;;;;;5076270;28;20373;-85
2022/05/26 02:16:19;;;;;;;3.60;1.50;;;19.90;99.90;;;;;;5075647;28;20386;-85
2022/05/26 02:18:59;;;;;;;2.90;1.25;;;19.90;99.90;;;;;;5069441;28;20406;-85
2022/05/26 02:21:34;;;;;;;4.87;1.60;;;19.90;99.90;;;;;;5068384;28;20505;-85
2022/05/26 02:24:07;;;;;;;5.40;1.48;;;19.80;99.90;;;;;;5068234;28;20487;-85
2022/05/26 02:26:35;;;;;;;3.47;1.40;;;19.70;99.90;;;;;;5067775;28;20370;-85
2022/05/26 02:31:50;;;;;;;1.70;1.40;;;19.70;99.90;;;;;;5067009;28;20423;-85
2022/05/26 02:34:21;;;;;;;3.45;1.52;;;19.70;99.90;;;;;;5067796;28;20400;-85
2022/05/26 02:36:52;;;;;;;3.90;1.40;;;19.70;99.90;;;;;;5070900;28;20466;-85
2022/05/26 02:39:20;;;;;;;4.13;1.10;;;19.80;99.90;;;;;;5072363;28;20365;-85
2022/05/26 02:41:47;;;;;;;1.63;1.02;;;19.70;99.90;;;;;;5071657;28;20463;-86
2022/05/26 02:44:14;;;;;;;1.83;1.10;;;19.70;99.90;;;;;;5070515;28;20366;-86
2022/05/26 02:46:53;;;;;;;2.55;1.10;;;19.90;99.90;;;;;;5072244;28;20378;-86
2022/05/26 02:49:28;;;;;;;2.63;1.20;;;19.90;99.90;;;;;;5072845;28;20921;-85
2022/05/26 02:52:14;;;;;;;1.67;1.00;;;19.80;99.90;;;;;;5069193;28;20381;-86
2022/05/26 02:55:02;;;;;;;1.52;0.95;;;19.80;99.90;;;;;;5068805;28;20381;-86
2022/05/26 02:57:39;;;;;;;1.83;0.90;;;19.80;99.90;;;;;;5069172;28;20382;-86
2022/05/26 03:00:12;;;;;;;3.38;0.95;;;20.00;99.90;;;;;;5071262;28;20738;-87
2022/05/26 03:02:51;;;;;;;2.22;1.10;;;20.10;99.90;;;;;;5073685;28;20468;-86
2022/05/26 03:05:24;;;;;;;2.45;1.00;;;19.90;99.90;;;;;;5074794;28;20419;-86
2022/05/26 03:07:54;;;;;;;1.27;0.88;;;19.90;99.90;;;;;;5075121;28;20400;-84
2022/05/26 03:10:30;;;;;;;1.43;0.80;;;19.90;99.90;;;;;;5077954;28;20460;-85
2022/05/26 03:13:01;;;;;;;2.75;0.90;;;20.00;99.90;;;;;;5075452;28;20397;-85
2022/05/26 03:15:30;;;;;;;2.35;0.80;;;19.90;99.90;;;;;;5074362;28;20378;-85
2022/05/26 03:18:01;;;;;;;1.55;0.85;;;19.90;99.90;;;;;;5075606;28;20432;-86
2022/05/26 03:20:28;;;;;;;2.13;0.80;;;19.90;99.90;;;;;;5076728;28;20366;-86
2022/05/26 03:22:55;;;;;;;1.70;0.80;;;20.00;99.90;;;;;;5079488;28;20386;-85
2022/05/26 03:25:22;;;;;;;3.22;1.00;;;20.10;99.90;;;;;;5077391;28;20374;-86
2022/05/26 03:27:49;;;;;;;1.77;0.85;;;20.10;99.90;;;;;;5073274;28;20373;-86
2022/05/26 03:30:16;;;;;;;1.88;0.70;;;20.30;99.90;;;;;;5087221;28;20391;-85
2022/05/26 03:32:46;;;;;;;2.25;0.80;;;20.30;99.90;;;;;;5071279;28;20374;-86
2022/05/26 03:40:55;;;;;;;4.53;0.75;;;20.50;99.90;;;;;;5070249;28;20521;-83
2022/05/26 03:43:29;;;;;;;1.33;0.60;;;20.80;99.90;;;;;;5070048;28;20378;-83
2022/05/26 03:46:00;;;;;;;1.67;0.70;;;20.80;99.90;;;;;;5070084;28;20370;-83
2022/05/26 03:48:28;;;;;;;2.50;0.80;;;20.70;99.90;;;;;;5069958;28;20378;-83
2022/05/26 03:50:55;;;;;;;1.95;0.60;;;20.60;99.90;;;;;;5069923;28;20399;-84
2022/05/26 03:53:23;;;;;;;2.55;0.70;;;20.60;99.90;;;;;;5069848;28;20393;-84
2022/05/26 03:55:50;;;;;;;1.80;0.60;;;20.70;99.90;;;;;;5068704;28;20550;-84
2022/05/26 03:58:20;;;;;;;2.07;0.60;;;20.80;99.90;;;;;;5071941;28;20469;-86
2022/05/26 04:00:47;;;;;;;1.60;0.50;;;20.90;99.90;;;;;;5070214;28;20397;-85
2022/05/26 04:03:14;;;;;;;1.05;0.50;;;20.80;99.90;;;;;;5068452;28;20396;-85
2022/05/26 04:05:41;;;;;;;2.40;0.85;;;20.70;99.90;;;;;;5069718;28;20390;-86
2022/05/26 04:08:08;;;;;;;1.00;0.63;;;20.50;99.90;;;;;;5070017;28;20378;-86
2022/05/26 04:10:35;;;;;;;0.80;0.60;;;20.40;99.90;;;;;;5070825;28;20370;-86
2022/05/26 04:13:03;;;;;;;1.02;0.50;;;20.50;99.90;;;;;;5070206;28;20870;-85
2022/05/26 04:15:30;;;;;;;1.95;0.50;;;20.60;99.90;;;;;;5070222;28;20378;-85
2022/05/26 04:17:57;;;;;;;1.00;0.57;;;20.70;99.90;;;;;;5069485;28;20470;-86
2022/05/26 04:20:25;;;;;;;1.05;0.50;;;20.80;99.90;;;;;;5069184;28;20927;-86
2022/05/26 04:22:52;;;;;;;2.17;0.60;;;20.70;99.90;;;;;;5069411;28;20421;-85
2022/05/26 04:25:20;;;;;;;1.65;0.50;;;20.60;99.90;;;;;;5069163;28;20539;-86
2022/05/26 04:27:47;;;;;;;1.65;0.50;;;20.60;99.90;;;;;;5069020;28;20866;-86
2022/05/26 04:30:14;;;;;;;0.60;0.45;;;20.50;99.90;;;;;;5069134;28;20382;-85
2022/05/26 04:32:42;;;;;;;0.87;0.50;;;20.40;99.90;;;;;;5068130;28;20447;-86
2022/05/26 04:35:10;;;;;;;1.27;0.55;;;20.20;99.90;;;;;;5068651;28;20399;-86
2022/05/26 04:37:38;;;;;;;1.60;0.50;;;20.10;99.90;;;;;;5068862;28;20473;-86
2022/05/26 04:40:07;;;;;;;1.85;0.60;;;20.10;99.90;;;;;;5069054;28;20375;-86
2022/05/26 04:42:34;;;;;;;1.50;0.50;;;20.30;99.90;;;;;;5068863;28;20413;-86
2022/05/26 04:45:01;;;;;;;2.85;0.50;;;20.40;99.90;;;;;;5068657;28;20401;-85
2022/05/26 04:47:28;;;;;;;0.98;0.43;;;20.40;99.90;;;;;;5068662;28;20398;-86
2022/05/26 04:49:56;;;;;;;1.10;0.47;;;20.60;99.90;;;;;;5068702;28;20895;-85
2022/05/26 04:52:25;;;;;;;1.60;0.60;;;20.70;99.90;;;;;;5068594;28;20378;-85
2022/05/26 04:54:53;;;;;;;2.13;0.50;;;21.10;99.90;;;;;;5084066;28;20378;-86
2022/05/26 04:57:22;;;;;;;1.10;0.40;;;21.60;99.40;;;;;;5068404;28;20473;-86
2022/05/26 04:59:53;;;;;;;1.60;0.60;;;22.10;98.80;;;;;;5068241;28;20374;-86
2022/05/26 05:02:24;;;;;;;2.90;0.60;;;22.20;98.30;;;;;;5068352;28;20449;-85
2022/05/26 05:04:52;;;;;;;1.38;0.50;;;22.00;97.60;;;;;;5067040;28;20382;-86
2022/05/26 05:07:19;;;;;;;0.90;0.60;;;21.70;98.60;;;;;;5068196;28;20405;-86
2022/05/26 05:09:47;;;;;;;1.92;0.60;;;21.50;99.30;;;;;;5083753;28;20435;-85
2022/05/26 05:12:18;;;;;;;4.00;0.73;;;21.30;99.90;;;;;;5068212;28;20378;-85
2022/05/26 05:14:50;;;;;;;1.85;0.60;;;21.20;99.90;;;;;;5083783;28;20427;-85
2022/05/26 05:17:20;;;;;;;1.70;0.70;;;21.10;99.90;;;;;;5068379;28;20464;-85
2022/05/26 05:19:48;;;;;;;1.80;0.70;;;21.10;99.90;;;;;;5068143;28;20382;-85
2022/05/26 05:22:27;;;;;;;0.93;0.60;;;20.90;99.90;;;;;;5083559;28;20450;-85
2022/05/26 05:25:00;;;;;;;3.53;0.70;;;20.90;99.90;;;;;;5068132;28;20371;-86
2022/05/26 05:27:38;;;;;;;1.67;0.70;;;20.80;99.90;;;;;;5068109;28;20478;-86
2022/05/26 05:30:12;;;;;;;2.03;0.67;;;20.70;99.90;;;;;;5068025;28;20890;-85
2022/05/26 05:32:46;;;;;;;2.88;0.70;;;20.70;99.90;;;;;;5067786;28;20870;-85
2022/05/26 05:35:19;;;;;;;5.15;0.70;;;20.60;99.90;;;;;;5067535;28;20408;-85
2022/05/26 05:37:46;;;;;;;1.10;0.63;;;20.50;99.90;;;;;;5067821;28;20381;-85
2022/05/26 05:40:13;;;;;;;1.52;0.70;;;20.30;99.90;;;;;;5067640;28;20393;-85
2022/05/26 05:42:41;;;;;;;1.90;0.52;;;20.30;99.90;;;;;;5067264;28;20444;-85
2022/05/26 05:45:14;;;;;;;1.95;1.20;;;20.20;99.90;;;;;;5067169;28;20463;-85
2022/05/26 05:47:53;;;;;;;5.05;1.92;;;20.10;99.90;;;;;;5083165;28;20386;-85
2022/05/26 05:50:20;;;;;;;3.08;2.33;;;20.10;99.90;;;;;;5068257;28;20370;-85
2022/05/26 05:52:47;;;;;;;1.75;1.05;;;20.20;99.90;;;;;;5068347;28;20735;-85
2022/05/26 05:55:14;;;;;;;1.13;0.80;;;20.50;99.90;;;;;;5083081;28;20383;-85
2022/05/26 05:57:41;;;;;;;1.60;0.80;;;20.50;99.90;;;;;;5099943;28;20374;-85
2022/05/26 06:00:09;;;;;;;1.10;0.60;;;20.40;99.90;;;;;;5067245;28;20378;-85
2022/05/26 06:02:36;;;;;;;0.93;0.60;;;20.30;99.90;;;;;;5067490;28;20947;-85
2022/05/26 06:05:04;;;;;;;1.50;0.75;;;20.10;99.90;;;;;;5082871;28;20485;-85
2022/05/26 06:07:31;;;;;;;2.05;0.90;;;19.90;99.90;;;;;;5065518;28;20374;-86
2022/05/26 06:09:58;;;;;;;2.45;0.60;;;19.90;99.90;;;;;;5067293;28;20413;-84
2022/05/26 06:12:25;;;;;;;1.52;0.60;;;19.80;99.90;;;;;;5070725;28;20554;-85
2022/05/26 06:14:52;;;;;;;1.37;0.77;;;19.70;99.90;;;;;;5086576;28;21058;-84
2022/05/26 06:17:20;;;;;;;2.90;0.90;;;19.50;99.90;;;;;;5087259;28;20721;-84
2022/05/26 06:19:47;;;;;;;2.33;0.85;;;19.40;99.90;;;;;;5087655;28;20446;-85
2022/05/26 06:22:17;;;;;;;2.40;0.90;;;19.30;99.90;;;;;;5085985;28;20953;-87
2022/05/26 06:24:46;;;;;;;1.90;1.10;;;19.20;99.90;;;;;;5087690;28;20373;-84
2022/05/26 06:30:03;;;;;;;4.50;1.43;;;18.90;99.90;;;;;;5087749;28;20732;-84
2022/05/26 06:38:01;;;;;;;2.80;2.00;;;18.80;99.90;;;;;;5087035;28;20404;-85
2022/05/26 06:40:28;;;;;;;3.27;2.13;;;18.90;99.90;;;;;;5087019;28;20368;-85
2022/05/26 06:42:56;;;;;;;2.27;1.60;;;18.80;99.90;;;;;;5087401;28;20380;-85
2022/05/26 06:45:23;;;;;;;4.70;1.90;;;18.70;99.90;;;;;;5087263;28;20782;-85
2022/05/26 06:47:50;;;;;;;9.93;5.57;;;18.60;99.90;;;;;;5086573;28;20752;-85
2022/05/26 06:50:17;;;;;;;6.18;2.00;;;18.50;99.90;;;;;;5087186;28;20472;-86
2022/05/26 06:52:44;;;;;;;5.38;1.90;;;18.30;99.90;;;;;;5087732;28;20364;-86
2022/05/26 06:55:12;;;;;;;5.97;3.25;;;18.10;99.90;;;;;;5086567;28;20380;-85
2022/05/26 06:57:39;;;;;;;5.85;3.60;;;18.00;99.90;;;;;;5086875;28;20425;-85
2022/05/26 07:00:08;;;;;;;4.25;2.50;;;17.80;99.90;;;;;;5087511;28;20461;-85
2022/05/26 07:02:35;;;;;;;6.07;1.65;;;17.60;99.90;;;;;;5087022;28;20411;-85
2022/05/26 07:05:03;;;;;;;2.33;1.30;;;17.30;99.90;;;;;;5087062;28;20864;-86
2022/05/26 07:07:32;;;;;;;2.15;1.50;;;17.10;99.90;;;;;;5086877;28;20384;-85
2022/05/26 07:09:59;;;;;;;2.80;1.80;;;16.90;99.90;;;;;;5086764;28;20383;-85
2022/05/26 07:12:26;;;;;;;2.95;2.00;;;16.70;99.90;;;;;;5087357;28;20743;-85
2022/05/26 07:14:54;;;;;;;5.25;3.92;;;16.60;99.90;;;;;;5086597;28;20369;-85
2022/05/26 07:17:21;;;;;;;10.35;6.15;;;16.40;99.90;;;;;;5086658;28;20501;-84
2022/05/26 07:19:48;;;;;;;5.80;4.80;;;16.30;99.90;;;;;;5086557;28;20389;-85
2022/05/26 07:22:15;;;;;;;10.95;6.68;;;16.30;99.90;;;;;;5085012;28;20905;-85
2022/05/26 07:24:43;;;;;;;9.05;6.50;;;16.20;99.90;;;;;;5107153;28;20370;-87
2022/05/26 07:27:10;;;;;;;8.77;6.15;;;16.10;99.90;;;;;;5090626;28;20380;-84
2022/05/26 07:29:37;;;;;;;7.25;5.68;;;16.10;99.90;;;;;;5087144;28;20387;-86
2022/05/26 07:32:04;;;;;;;6.90;5.03;;;16.10;99.90;;;;;;5086774;28;20380;-86
2022/05/26 07:34:31;;;;;;;7.55;4.60;;;16.00;99.90;;;;;;5086564;28;20404;-85
2022/05/26 07:42:32;;;;;;;9.30;6.38;;;15.80;99.90;;;;;;5086799;28;20408;-86
2022/05/26 07:45:01;;;;;;;5.25;3.25;;;15.70;99.90;;;;;;5087011;28;20376;-85
2022/05/26 07:47:31;;;;;;;5.28;3.40;;;15.70;99.90;;;;;;5086328;28;20438;-85
2022/05/26 07:49:58;;;;;;;8.65;3.78;;;15.60;99.90;;;;;;5086378;28;20360;-85
2022/05/26 07:52:25;;;;;;;8.68;3.67;;;15.60;99.90;;;;;;5087779;28;20442;-85
2022/05/26 07:54:52;;;;;;;9.75;4.32;;;15.50;99.90;;;;;;5086656;28;20748;-86
2022/05/26 07:57:30;;;;;;;11.63;5.20;;;15.50;99.90;;;;;;5086892;28;20593;-85
2022/05/26 07:59:59;;;;;;;12.23;6.27;;;15.50;99.90;;;;;;5086423;28;20848;-85
2022/05/26 08:02:26;;;;;;;11.40;4.93;;;15.40;99.90;;;;;;5084779;28;20438;-86
2022/05/26 08:04:53;;;;;;;10.35;6.97;;;15.30;99.90;;;;;;5086143;28;20394;-85
2022/05/26 08:07:23;;;;;;;6.95;4.22;;;15.20;99.90;;;;;;5086381;28;20469;-85
2022/05/26 08:09:50;;;;;;;6.65;4.38;;;15.20;99.90;;;;;;5089435;28;20377;-85
2022/05/26 08:12:17;;;;;;;9.60;4.68;;;15.20;99.90;;;;;;5089696;28;20408;-84
2022/05/26 08:14:45;;;;;;;8.53;4.37;;;15.20;99.90;;;;;;5089826;28;20798;-84
2022/05/26 08:17:13;;;;;;;9.03;4.27;;;15.10;99.90;;;;;;5089821;28;20372;-85
2022/05/26 08:19:41;;;;;;;8.20;3.65;;;15.10;99.90;;;;;;5089250;28;20372;-84
2022/05/26 08:22:08;;;;;;;8.85;4.47;;;15.00;99.90;;;;;;5089491;28;20400;-84
2022/05/26 08:24:35;;;;;;;10.52;5.55;;;15.00;99.90;;;;;;5089572;28;20832;-85
2022/05/26 08:27:02;;;;;;;8.23;5.45;;;14.90;99.90;;;;;;5089687;28;21152;-85
2022/05/26 08:29:29;;;;;;;7.05;4.05;;;14.90;99.90;;;;;;5088235;28;20444;-84
2022/05/26 08:31:56;;;;;;;8.75;4.07;;;14.90;99.90;;;;;;5089345;28;20467;-84
2022/05/26 08:34:23;;;;;;;7.60;4.50;;;14.90;99.90;;;;;;5089249;28;20388;-84
2022/05/26 08:36:50;;;;;;;7.18;4.80;;;14.80;99.90;;;;;;5089620;28;20388;-84
2022/05/26 08:39:17;;;;;;;7.50;4.88;;;14.80;99.90;;;;;;5089671;28;20381;-84
2022/05/26 08:41:49;;;;;;;7.88;4.80;;;14.70;99.90;;;;;;5089614;28;20487;-84
2022/05/26 08:44:29;;;;;;;8.60;5.35;;;14.80;99.90;;;;;;5089112;28;20451;-85
2022/05/26 08:47:03;;;;;;;9.02;5.25;;;14.80;99.90;;;;;;5089768;28;20410;-85
2022/05/26 08:50:07;;;;;;;10.85;4.47;;;14.70;99.90;;;;;;5090989;28;20368;-85
2022/05/26 08:52:45;;;;;;;9.80;4.20;;;14.70;99.90;;;;;;5006831;28;20386;-85
2022/05/26 08:55:17;;;;;;;9.00;3.97;;;14.60;99.90;;;;;;5007599;28;20378;-84
2022/05/26 08:57:48;;;;;;;9.85;4.75;;;14.60;99.90;;;;;;5008242;28;20391;-83
2022/05/26 09:00:19;;;;;;;8.32;5.30;;;14.50;99.90;;;;;;5008925;28;20457;-84
2022/05/26 09:02:48;;;;;;;11.02;6.13;;;14.60;99.90;;;;;;5007412;28;20922;-86
2022/05/26 09:05:19;;;;;;;8.73;5.37;;;14.50;99.90;;;;;;4991734;28;20430;-85
2022/05/26 09:13:53;;;;;;;8.77;5.35;;;14.80;99.90;;;;;;4967869;28;20422;-86
2022/05/26 09:16:22;;;;;;;13.23;7.05;;;14.70;99.90;;;;;;4967803;28;20842;-83
2022/05/26 09:19:09;;;;;;;13.80;8.68;;;14.70;99.90;;;;;;4967185;28;20390;-86
2022/05/26 09:21:37;;;;;;;14.07;9.48;;;14.70;99.90;;;;;;4968547;28;20399;-84
2022/05/26 09:24:25;;;;;;;11.98;8.05;;;14.70;99.90;;;;;;4967850;28;20418;-84
2022/05/26 09:26:56;;;;;;;10.97;7.10;;;14.70;99.90;;;;;;4967527;28;20882;-84
2022/05/26 09:29:32;;;;;;;11.55;6.22;;;14.60;99.90;;;;;;4997120;28;20384;-84
2022/05/26 09:32:01;;;;;;;11.90;5.20;;;14.70;99.90;;;;;;5029251;28;20380;-83
2022/05/26 09:34:34;;;;;;;10.27;5.13;;;14.70;99.90;;;;;;5046406;28;20404;-84
2022/05/26 09:37:07;;;;;;;10.23;5.63;;;14.70;99.90;;;;;;5046000;28;20368;-84
2022/05/26 09:39:42;;;;;;;9.25;5.35;;;14.60;99.90;;;;;;5046251;28;20484;-86
2022/05/26 09:42:20;;;;;;;8.35;4.88;;;14.60;99.90;;;;;;5046025;28;20579;-84
2022/05/26 09:45:07;;;;;;;12.20;6.18;;;14.50;99.90;;;;;;5060330;28;20383;-83
2022/05/26 09:47:47;;;;;;;11.13;6.40;;;14.40;99.90;;;;;;5089585;28;20404;-84
2022/05/26 09:50:32;;;;;;;9.02;5.40;;;14.40;99.90;;;;;;5088282;28;20469;-83
2022/05/26 09:53:00;;;;;;;8.93;5.70;;;14.30;99.90;;;;;;5089512;28;20434;-83
2022/05/26 09:55:51;;;;;;;11.43;6.70;;;14.20;99.90;;;;;;5088511;28;20457;-84
2022/05/26 09:58:41;;;;;;;13.38;6.30;;;14.20;99.90;;;;;;5088196;28;20451;-84
2022/05/26 10:01:28;;;;;;;11.63;6.97;;;14.10;99.90;;;;;;5088277;28;20483;-84
2022/05/26 10:04:22;;;;;;;10.38;6.85;;;14.10;99.90;;;;;;5088446;28;20373;-84
2022/05/26 10:07:15;;;;;;;11.48;7.00;;;14.10;99.90;;;;;;5087567;28;20369;-85
2022/05/26 10:10:21;;;;;;;12.20;6.60;;;14.10;99.90;;;;;;5005555;28;20379;-84
2022/05/26 10:13:38;;;;;;;16.92;8.85;;;14.10;99.90;;;;;;5005646;28;20414;-84
2022/05/26 10:16:32;;;;;;;14.87;7.67;;;14.10;99.90;;;;;;4928595;29;20478;-86
2022/05/26 10:19:24;;;;;;;11.25;7.18;;;14.10;99.90;;;;;;4928511;29;20382;-86
2022/05/26 10:22:03;;;;;;;10.20;6.55;;;14.10;99.90;;;;;;4928274;29;20457;-84
2022/05/26 10:24:51;;;;;;;12.23;6.73;;;14.00;99.90;;;;;;4929104;29;20390;-85
2022/05/26 10:27:46;;;;;;;8.73;6.10;;;14.00;99.90;;;;;;4928100;29;20381;-85
2022/05/26 10:30:37;;;;;;;11.23;5.53;;;13.90;99.90;;;;;;4928028;29;20401;-85
2022/05/26 10:33:28;;;;;;;11.18;5.53;;;13.80;99.90;;;;;;4929229;29;20413;-85
2022/05/26 10:36:15;;;;;;;12.13;6.25;;;13.70;99.90;;;;;;4928320;29;20417;-84
2022/05/26 10:39:14;;;;;;;11.32;6.47;;;13.70;99.90;;;;;;4928353;29;20386;-84
2022/05/26 10:41:58;;;;;;;11.57;8.00;;;13.70;99.90;;;;;;4852933;29;20468;-85
2022/05/26 10:44:57;;;;;;;13.55;8.20;;;13.60;99.90;;;;;;4837548;29;20400;-85
2022/05/26 10:48:04;;;;;;;12.85;9.18;;;13.60;99.90;;;;;;4883137;29;20416;-85
2022/05/26 10:50:54;;;;;;;18.60;13.40;;;13.60;99.90;;;;;;4929614;29;20390;-85
2022/05/26 10:54:01;;;;;;;18.95;11.57;;;13.60;99.90;;;;;;4947770;29;20392;-87
2022/05/26 10:57:00;;;;;;;13.02;8.82;;;13.50;99.90;;;;;;4911735;29;20791;-84
2022/05/26 10:59:50;;;;;;;17.58;9.48;;;13.50;99.90;;;;;;4927276;29;20394;-84
2022/05/26 11:02:45;;;;;;;14.27;8.80;;;13.40;99.90;;;;;;4912166;29;20440;-85
2022/05/26 11:05:30;;;;;;;19.15;11.30;;;13.30;99.90;;;;;;4928159;29;20803;-84
2022/05/26 11:08:31;;;;;;;14.95;9.85;;;13.30;99.90;;;;;;4911730;29;20925;-85
2022/05/26 11:11:28;;;;;;;13.07;8.70;;;13.40;99.90;;;;;;4927480;29;20401;-84
2022/05/26 11:17:21;;;;;;;14.82;9.70;;;13.30;99.90;;;;;;4927456;29;20913;-85
2022/05/26 11:19:51;;;;;;;15.65;10.70;;;13.30;99.90;;;;;;4965945;28;20782;-84
2022/05/26 11:22:19;;;;;;;15.45;10.30;;;13.30;99.90;;;;;;4968285;28;20438;-84
2022/05/26 11:24:54;;;;;;;14.00;10.00;;;13.60;99.90;;;;;;4964073;28;20377;-85
2022/05/26 11:27:53;;;;;;;15.43;8.90;;;13.30;99.90;;;;;;5010950;28;20389;-85
2022/05/26 11:36:17;;;;;;;9.48;7.22;;;13.10;99.90;;;;;;5086847;28;21168;-85
2022/05/26 11:38:49;;;;;;;13.00;8.35;;;13.10;99.90;;;;;;5085682;28;20377;-85
2022/05/26 11:41:26;;;;;;;11.57;8.27;;;13.10;99.90;;;;;;5088233;28;20463;-85
2022/05/26 11:44:07;;;;;;;11.32;8.23;;;13.10;99.90;;;;;;5091174;28;20372;-85
2022/05/26 11:46:44;;;;;;;16.60;11.30;;;13.20;99.90;;;;;;5089153;28;20388;-84
2022/05/26 11:49:32;;;;;;;13.15;9.48;;;13.10;99.90;;;;;;5090699;28;20894;-85
2022/05/26 11:51:59;;;;;;;18.27;12.20;;;13.10;99.90;;;;;;5090356;28;20459;-85
2022/05/26 11:54:53;;;;;;;14.30;10.68;;;13.10;99.90;;;;;;5091085;28;21192;-85
2022/05/26 11:57:38;;;;;;;15.02;11.35;;;13.10;99.90;;;;;;5090542;28;20410;-85
2022/05/26 12:00:50;;;;;;;15.75;10.52;;;13.10;99.90;;;;;;5090352;28;20868;-85
2022/05/26 12:03:23;;;;;;;16.25;10.90;;;13.10;99.90;;;;;;4992700;28;20407;-84
2022/05/26 12:05:57;;;;;;;13.80;11.90;;;13.20;99.90;;;;;;4992879;28;20446;-84
2022/05/26 12:08:30;;;;;;;16.98;13.88;;;13.10;99.90;;;;;;5008723;28;20389;-86
2022/05/26 12:11:01;;;;;;;18.05;12.90;;;13.10;99.90;;;;;;5008063;28;20423;-86
2022/05/26 12:13:32;;;;;;;15.65;10.95;;;13.10;99.90;;;;;;5008155;28;20393;-85
2022/05/26 12:16:10;;;;;;;15.07;10.07;;;13.00;99.90;;;;;;4992227;28;20878;-85
2022/05/26 12:18:46;;;;;;;15.87;10.70;;;12.90;99.90;;;;;;5008697;28;20392;-85
2022/05/26 12:21:27;;;;;;;18.50;12.90;;;12.90;99.90;;;;;;5008565;28;20413;-84
2022/05/26 12:23:55;;;;;;;13.57;10.30;;;12.80;99.90;;;;;;5008954;28;20419;-85
2022/05/26 12:26:28;;;;;;;14.32;12.05;;;12.80;99.90;;;;;;5008917;28;20454;-85
2022/05/26 12:29:14;;;;;;;16.42;12.02;;;12.70;99.90;;;;;;5008332;28;20427;-85
2022/05/26 12:32:07;;;;;;;15.82;12.80;;;12.70;99.90;;;;;;5008485;28;20443;-85
2022/05/26 12:34:43;;;;;;;16.85;12.85;;;12.60;99.90;;;;;;5014710;28;20422;-86
2022/05/26 12:37:27;;;;;;;16.13;11.88;;;12.60;99.90;;;;;;5014114;28;20418;-86
2022/05/26 12:40:04;;;;;;;15.80;11.13;;;12.50;99.90;;;;;;5092420;28;20418;-88
2022/05/26 12:42:55;;;;;;;14.93;9.90;;;12.50;99.90;;;;;;5094089;28;20428;-85
2022/05/26 12:45:45;;;;;;;17.23;11.47;;;12.40;99.90;;;;;;5093117;28;20937;-87
2022/05/26 12:48:26;;;;;;;15.57;12.37;;;12.30;99.90;;;;;;5097529;28;20451;-86
2022/05/26 12:50:55;;;;;;;23.70;18.48;;;12.30;99.90;;;;;;5098396;28;20368;-86
2022/05/26 12:53:32;;;;;;;19.52;14.38;;;12.30;99.90;;;;;;5094310;28;20869;-85
2022/05/26 12:56:06;;;;;;;18.77;12.65;;;12.30;99.90;;;;;;5091048;28;20375;-86
2022/05/26 12:58:45;;;;;;;18.23;10.80;;;12.30;99.90;;;;;;5090094;28;20380;-84
2022/05/26 13:01:14;;;;;;;15.88;10.43;;;12.30;99.90;;;;;;5090987;28;20899;-86
2022/05/26 13:04:04;;;;;;;20.90;10.70;;;12.20;99.90;;;;;;5095440;28;20871;-86
2022/05/26 13:06:43;;;;;;;16.23;10.10;;;12.20;99.90;;;;;;5095207;28;20387;-86
2022/05/26 13:09:19;;;;;;;16.23;9.55;;;12.20;99.90;;;;;;5093836;28;20379;-87
2022/05/26 13:11:55;;;;;;;13.93;9.68;;;12.10;99.90;;;;;;5092264;28;20796;-86
2022/05/26 13:14:38;;;;;;;16.70;10.38;;;12.10;99.90;;;;;;5095030;28;20393;-86
2022/05/26 13:17:14;;;;;;;12.23;9.65;;;12.00;99.90;;;;;;5096324;28;20360;-87
2022/05/26 13:19:52;;;;;;;14.88;10.27;;;12.10;99.90;;;;;;5096345;28;20368;-85
2022/05/26 13:22:32;;;;;;;14.00;9.70;;;12.10;99.90;;;;;;5096197;28;20424;-85
2022/05/26 13:25:03;;;;;;;14.52;9.20;;;12.00;99.90;;;;;;5096464;28;20356;-84
2022/05/26 13:27:49;;;;;;;14.18;11.65;;;12.10;99.90;;;;;;5095458;28;20373;-86
2022/05/26 13:33:07;;;;;;;16.90;13.45;;;12.00;99.90;;;;;;5096068;28;20371;-87
2022/05/26 13:35:43;;;;;;;17.70;13.68;;;12.10;99.90;;;;;;5090498;28;20422;-85
2022/05/26 13:38:28;;;;;;;18.52;14.00;;;12.00;99.90;;;;;;5091134;28;20372;-88
2022/05/26 13:40:56;;;;;;;17.30;11.60;;;11.90;99.90;;;;;;5092570;28;20381;-86
2022/05/26 13:43:24;;;;;;;15.18;10.90;;;11.90;99.90;;;;;;5091631;28;20398;-85
2022/05/26 13:45:52;;;;;;;15.63;10.48;;;11.80;99.90;;;;;;5089147;28;20375;-86
2022/05/26 13:48:22;;;;;;;15.50;10.45;;;11.80;99.90;;;;;;5088858;28;20464;-86
2022/05/26 13:50:51;;;;;;;15.90;10.90;;;11.80;99.90;;;;;;5088498;28;20380;-87
2022/05/26 13:53:20;;;;;;;16.17;11.98;;;11.70;99.90;;;;;;5088303;28;20409;-85
2022/05/26 13:55:49;;;;;;;17.27;11.40;;;11.70;99.90;;;;;;5088424;28;20372;-86
2022/05/26 13:58:20;;;;;;;17.23;12.00;;;11.60;99.90;;;;;;5088434;28;20388;-86
2022/05/26 14:00:58;;;;;;;20.52;13.73;;;11.60;99.90;;;;;;5088272;28;20372;-87